Flight Track Log - Related Links

Times and Time Zones

All times are in EDT time to prevent confusion due to time zone crossing. See the N16112 flight status page for this flight to view local times or setup timezone preferences in your user account.

Time Position Orientation Groundspeed Altitude Reporting Facility
EDT Latitude Longitude Course Direction KTS MPH feet Rate Location/Type
Wed 10:36:35 AM 29.9778 -95.3367 276° West 165 190 600  Level Houston Center
Wed 10:37:06 AM 29.9722 -95.3664 258° West 188 216 1,600 1,698 Climbing Houston Center
Wed 10:37:28 AM 29.9683 -95.3875 258° West 193 222 2,100 2,071 Climbing Houston Center
Wed 10:38:30 AM 29.9719 -95.4622 273° West 228 262 4,500 2,468 Climbing Houston Center
Wed 10:39:00 AM 30.0181 -95.6632 277° West  Level FlightAware Approximate
Wed 10:39:32 AM 29.9842 -95.5372 281° West 242 278 7,200  Level Houston Center
Wed 10:40:00 AM 30.0304 -95.7736 277° West  Level FlightAware Approximate
Wed 10:40:34 AM 29.9978 -95.6200 281° West 259 298 9,500  Level Houston Center
Wed 10:41:00 AM 30.0404 -95.8843 276° West  Level FlightAware Approximate
Wed 10:41:37 AM 30.0128 -95.7078 281° West 276 318 10,900  Level Houston Center
Wed 10:42:00 AM 30.0496 -95.9951 276° West  Level FlightAware Approximate
Wed 10:42:39 AM 30.0306 -95.8147 281° West 335 386 12,000  Level Houston Center
Wed 10:43:41 AM 30.0514 -95.9464 280° West 347 399 14,300 2,226 Climbing Houston Center
Wed 10:44:43 AM 30.0694 -96.0578 281° West 337 388 16,600 1,935 Climbing Houston Center
Wed 10:45:45 AM 30.0856 -96.1597 280° West 327 376 18,300 1,659 Climbing Houston Center
Wed 10:46:46 AM 30.1014 -96.2628 280° West 328 377 20,000 1,463 Climbing Houston Center
Wed 10:47:48 AM 30.1178 -96.3686 280° West 336 387 21,300 1,355 Climbing Houston Center
Wed 10:48:50 AM 30.1353 -96.4861 280° West 340 391 22,800 1,355 Climbing Houston Center
Wed 10:49:52 AM 30.1525 -96.6006 280° West 354 407 24,100 1,258 Climbing Houston Center
Wed 10:50:54 AM 30.1706 -96.7106 281° West 347 399 25,400 1,258 Climbing Houston Center
Wed 10:51:56 AM 30.1867 -96.8244 279° West 351 404 26,700 1,258 Climbing Houston Center
Wed 10:52:58 AM 30.2036 -96.9339 280° West 345 397 28,000 1,258 Climbing Houston Center
Wed 10:54:00 AM 30.2194 -97.0456 279° West 345 397 29,300 1,403 Climbing Houston Center
Wed 10:55:02 AM 30.2378 -97.1714 280° West 336 387 30,900 1,403 Climbing Houston Center
Wed 10:56:04 AM 30.2539 -97.2778 280° West 333 383 32,200 1,258 Climbing Houston Center
Wed 10:57:06 AM 30.2686 -97.3839 279° West 331 381 33,500 1,258 Climbing Houston Center
Wed 10:58:08 AM 30.2839 -97.4875 280° West 323 372 34,800 1,210 Climbing Houston Center
Wed 10:59:10 AM 30.2981 -97.5878 279° West 313 360 36,000 581 Climbing Houston Center
Wed 11:00:12 AM 30.3133 -97.6894 280° West 317 365 36,000  Level Houston Center
Wed 11:01:14 AM 30.3278 -97.7972 279° West 331 381 36,000  Level Houston Center
Wed 11:02:16 AM 30.3444 -97.9114 280° West 352 405 36,000  Level Houston Center
Wed 11:03:18 AM 30.3611 -98.0300 279° West 367 422 36,000  Level Houston Center
Wed 11:04:19 AM 30.3800 -98.1711 279° West 375 432 36,000  Level Houston Center
Wed 11:05:21 AM 30.3967 -98.2922 279° West 377 434 36,000  Level Houston Center
Wed 11:06:23 AM 30.4136 -98.4153 279° West 381 438 36,000  Level Houston Center
Wed 11:07:25 AM 30.4300 -98.5392 279° West 384 442 36,000  Level Houston Center
Wed 11:08:27 AM 30.4467 -98.6617 279° West 383 441 36,000  Level Houston Center
Wed 11:09:29 AM 30.4633 -98.7853 279° West 383 441 36,000  Level Houston Center
Wed 11:10:31 AM 30.4828 -98.9092 280° West 387 445 36,000  Level Houston Center
Wed 11:11:33 AM 30.4969 -99.0328 278° West 386 444 36,000  Level Houston Center
Wed 11:12:35 AM 30.5153 -99.1597 280° West 383 441 36,000  Level Houston Center
Wed 11:13:37 AM 30.5311 -99.2814 279° West 383 441 36,000  Level Houston Center
Wed 11:14:39 AM 30.5467 -99.4031 278° West 384 442 36,000  Level Houston Center
Wed 11:15:41 AM 30.5647 -99.5489 278° West 383 441 36,000  Level Houston Center
Wed 11:16:43 AM 30.5800 -99.6711 278° West 383 441 36,000  Level Houston Center
Wed 11:17:45 AM 30.5950 -99.7928 278° West 383 441 36,000  Level Houston Center
Wed 11:18:47 AM 30.6117 -99.9144 279° West 384 442 36,000  Level Houston Center
Wed 11:19:49 AM 30.6258 -100.0367 278° West 384 442 36,000  Level Houston Center
Wed 11:20:51 AM 30.6436 -100.1800 278° West 380 437 36,000  Level Houston Center
Wed 11:21:53 AM 30.6583 -100.3014 278° West 385 443 36,000  Level Houston Center
Wed 11:22:55 AM 30.6725 -100.4233 278° West 389 448 36,000  Level Houston Center
Wed 11:23:57 AM 30.6869 -100.5450 278° West 395 455 36,000  Level Houston Center
Wed 11:24:59 AM 30.7003 -100.6658 277° West 386 444 36,000  Level Houston Center
Wed 11:26:01 AM 30.7178 -100.8119 278° West 383 441 36,000  Level Houston Center
Wed 11:27:03 AM 30.7314 -100.9339 277° West 383 441 36,000  Level Houston Center
Wed 11:28:05 AM 30.7464 -101.0556 278° West 385 443 36,000  Level Houston Center
Wed 11:29:07 AM 30.7606 -101.1758 278° West 382 440 36,000  Level Houston Center
Wed 11:30:10 AM 30.7764 -101.2981 279° West 383 441 36,000  Level Houston Center
Wed 11:31:12 AM 30.7878 -101.4225 276° West 388 447 36,000  Level Houston Center
Wed 11:32:14 AM 30.8033 -101.5697 277° West 387 445 36,000  Level Houston Center
Wed 11:33:15 AM 30.8181 -101.7000 278° West 383 441 36,000  Level Houston Center
Wed 11:33:52 AM 30.8264 -101.7722 278° West 384 442 36,000  Level Albuquerque Center
Wed 11:34:54 AM 30.8397 -101.8953 277° West 384 442 36,000  Level Albuquerque Center
Wed 11:35:57 AM 30.8522 -102.0194 277° West 386 444 36,000  Level Albuquerque Center
Wed 11:36:59 AM 30.8653 -102.1436 277° West 385 443 36,000  Level Albuquerque Center
Wed 11:38:01 AM 30.8786 -102.2678 277° West 385 443 36,000  Level Albuquerque Center
Wed 11:39:03 AM 30.8917 -102.3928 277° West 386 444 36,000  Level Albuquerque Center
Wed 11:40:05 AM 30.9044 -102.5175 277° West 386 444 36,000  Level Albuquerque Center
Wed 11:41:07 AM 30.9200 -102.6672 277° West 386 444 36,000  Level Albuquerque Center
Wed 11:42:09 AM 30.9331 -102.7917 277° West 386 444 36,000  Level Albuquerque Center
Wed 11:43:11 AM 30.9450 -102.9156 276° West 385 443 36,000  Level Albuquerque Center
Wed 11:44:13 AM 30.9681 -103.0386 282° West 389 448 36,000  Level Albuquerque Center
Wed 11:45:15 AM 31.0008 -103.1581 288° West 387 445 36,000  Level Albuquerque Center
Wed 11:46:17 AM 31.0347 -103.2797 288° West 392 451 36,000  Level Albuquerque Center
Wed 11:47:19 AM 31.0678 -103.3997 288° West 391 450 36,000  Level Albuquerque Center
Wed 11:48:21 AM 31.1064 -103.5439 287° West 390 449 36,000  Level Albuquerque Center
Wed 11:49:23 AM 31.1389 -103.6631 288° West 388 447 36,000  Level Albuquerque Center
Wed 11:50:25 AM 31.1719 -103.7786 289° West 389 448 36,000  Level Albuquerque Center
Wed 11:51:27 AM 31.2031 -103.8994 287° West 390 449 36,000  Level Albuquerque Center
Wed 11:52:29 AM 31.2347 -104.0200 287° West 390 449 36,000  Level Albuquerque Center
Wed 11:53:31 AM 31.2744 -104.1639 288° West 390 449 36,000  Level Albuquerque Center
Wed 11:54:33 AM 31.3061 -104.2856 287° West 392 451 36,000  Level Albuquerque Center
Wed 11:55:35 AM 31.3381 -104.4044 287° West 388 447 36,000  Level Albuquerque Center
Wed 11:56:37 AM 31.3692 -104.5253 287° West 391 450 36,000  Level Albuquerque Center
Wed 11:57:39 AM 31.4022 -104.6464 288° West 392 451 36,000  Level Albuquerque Center
Wed 11:58:41 AM 31.4383 -104.7911 286° West 390 449 36,000  Level Albuquerque Center
Wed 11:59:43 AM 31.4706 -104.9117 287° West 391 450 36,000  Level Albuquerque Center
Wed 12:00:45 PM 31.5017 -105.0342 287° West 393 452 36,000  Level Albuquerque Center
Wed 12:01:47 PM 31.5339 -105.1558 287° West 394 453 36,000  Level Albuquerque Center
Wed 12:02:49 PM 31.5644 -105.2772 286° West 393 452 36,000  Level Albuquerque Center
Wed 12:03:51 PM 31.6025 -105.4247 287° West 395 455 36,000  Level Albuquerque Center
Wed 12:04:53 PM 31.6325 -105.5492 286° West 398 458 36,000  Level Albuquerque Center
Wed 12:05:55 PM 31.6636 -105.6714 287° West 394 453 36,000  Level Albuquerque Center
Wed 12:06:57 PM 31.6942 -105.7917 287° West 387 445 36,000  Level Albuquerque Center
Wed 12:07:59 PM 31.7253 -105.9158 286° West 396 456 36,000  Level Albuquerque Center
Wed 12:09:00 PM 31.7561 -106.0378 287° West 391 450 36,000  Level Albuquerque Center
Wed 12:10:02 PM 31.7922 -106.1831 286° West 387 445 36,000  Level Albuquerque Center
Wed 12:11:04 PM 31.8203 -106.3044 285° West 386 444 36,000  Level Albuquerque Center
Wed 12:12:06 PM 31.8350 -106.4289 278° West 384 442 36,000  Level Albuquerque Center
Wed 12:13:08 PM 31.8494 -106.5528 278° West 383 441 36,000  Level Albuquerque Center
Wed 12:14:10 PM 31.8633 -106.6775 278° West 384 442 36,000  Level Albuquerque Center
Wed 12:15:12 PM 31.8778 -106.8006 278° West 380 437 36,000  Level Albuquerque Center
Wed 12:16:14 PM 31.8925 -106.9244 278° West 380 437 36,000  Level Albuquerque Center
Wed 12:17:16 PM 31.9092 -107.0733 278° West 381 438 36,000  Level Albuquerque Center
Wed 12:18:18 PM 31.9228 -107.1986 277° West 383 441 36,000  Level Albuquerque Center
Wed 12:19:20 PM 31.9361 -107.3242 277° West 384 442 36,000  Level Albuquerque Center
Wed 12:20:22 PM 31.9492 -107.4472 277° West 382 440 36,000  Level Albuquerque Center
Wed 12:21:24 PM 31.9633 -107.5731 278° West 384 442 36,000  Level Albuquerque Center
Wed 12:22:26 PM 31.9778 -107.6975 278° West 384 442 36,000  Level Albuquerque Center
Wed 12:23:28 PM 31.9903 -107.8231 277° West 383 441 36,000  Level Albuquerque Center
Wed 12:24:30 PM 32.0061 -107.9722 277° West 385 443 36,000  Level Albuquerque Center
Wed 12:25:32 PM 32.0194 -108.0994 277° West 388 447 36,000  Level Albuquerque Center
Wed 12:26:34 PM 32.0314 -108.2164 277° West 385 443 36,000  Level Albuquerque Center
Wed 12:27:36 PM 32.0453 -108.3411 278° West 386 444 36,000  Level Albuquerque Center
Wed 12:28:38 PM 32.0603 -108.4903 277° West 385 443 36,000 -48 Level Albuquerque Center
Wed 12:29:40 PM 32.0719 -108.6161 276° West 387 445 35,900 -480 Descending Albuquerque Center
Wed 12:30:43 PM 32.0850 -108.7419 277° West 388 447 35,000 -912 Descending Albuquerque Center
Wed 12:31:45 PM 32.0969 -108.8683 276° West 390 449 34,000 -484 Descending Albuquerque Center
Wed 12:32:47 PM 32.1100 -108.9939 277° West 389 448 34,000 -677 Level Albuquerque Center
Wed 12:33:49 PM 32.1242 -109.1453 276° West 389 448 32,600 -1,790 Descending Albuquerque Center
Wed 12:34:51 PM 32.1367 -109.2733 277° West 392 451 30,300 -2,274 Descending Albuquerque Center
Wed 12:35:53 PM 32.1533 -109.4036 279° West 400 460 27,900 -2,226 Descending Albuquerque Center
Wed 12:36:55 PM 32.1692 -109.5361 278° West 408 470 25,700 -1,887 Descending Albuquerque Center
Wed 12:37:57 PM 32.1864 -109.6697 279° West 412 474 24,000 -1,839 Descending Albuquerque Center
Wed 12:38:59 PM 32.2044 -109.8247 278° West 404 465 21,900 -2,129 Descending Albuquerque Center
Wed 12:40:01 PM 32.1994 -109.9525 267° West 395 455 19,600 -2,226 Descending Albuquerque Center
Wed 12:41:03 PM 32.1869 -110.0767 263° West 388 447 17,300 -2,330 Descending Albuquerque Center
Wed 12:41:44 PM 32.1758 -110.1689 262° West 375 432 15,600 -2,129 Descending Albuquerque Center
Wed 12:42:05 PM 32.1750 -110.1975 268° West 381 438 15,100 -2,222 Descending Albuquerque Center
Wed 12:42:38 PM 32.1642 -110.2808 261° West 369 425 13,600 -2,032 Descending Albuquerque Center
Wed 12:43:07 PM 32.1719 -110.3125 286° West 369 425 13,000 -2,164 Descending Albuquerque Center
Wed 12:43:39 PM 32.1867 -110.3931 282° West 363 418 11,400 -1,839 Descending Albuquerque Center
Wed 12:44:09 PM 32.1969 -110.4286 289° West 368 423 11,100 -393 Descending Albuquerque Center
Wed 12:44:40 PM 32.2122 -110.5094 283° West 366 421 11,000 -97 Descending Albuquerque Center
Wed 12:45:11 PM 32.2269 -110.5658 287° West 363 418 11,000 -295 Level Albuquerque Center
Wed 12:45:41 PM 32.2364 -110.6214 281° West 355 409 10,700 -774 Descending Albuquerque Center
Wed 12:46:13 PM 32.2422 -110.6722 278° West 344 396 10,200 -1,164 Descending Albuquerque Center
Wed 12:46:48 PM 32.2436 -110.7331 272° West 295 339 9,400 -1,452 Descending Albuquerque Center
Wed 12:47:15 PM 32.2489 -110.7639 281° West 305 351 8,700 -2,000 Descending Albuquerque Center
Wed 12:47:48 PM 32.2528 -110.8236 274° West 284 327 7,400 -1,548 Descending Albuquerque Center
Wed 12:48:17 PM 32.2614 -110.8556 288° West 291 335 7,100 -269 Descending Albuquerque Center
Wed 12:48:55 PM 32.2758 -110.9183 285° West 277 319 7,100 -97 Level Albuquerque Center
Wed 12:49:19 PM 32.2839 -110.9414 292° West 284 327 7,000 -759 Descending Albuquerque Center
Wed 12:50:14 PM 32.3064 -111.0311 287° West 262 302 6,100 -443 Descending Albuquerque Center
Wed 12:51:21 PM 32.2969 -111.1144 262° West 250 288 6,100 -47 Level Albuquerque Center
Wed 12:52:21 PM 32.2439 -111.0958 163° South 252 290 6,000 -495 Descending Albuquerque Center
Wed 12:52:58 PM 32.2178 -111.0600 131° Southeast 238 274 5,300 -1,254 Descending Albuquerque Center
Wed 12:53:28 PM 32.2025 -111.0350 126° Southeast 238 274 4,600 -1,180 Descending Albuquerque Center
Wed 12:53:59 PM 32.1789 -111.0150 144° Southeast 197 227 4,100 -968 Descending Albuquerque Center

Login

Don't have an account? Register now (free) for customized features, flight alerts, and more!